sensor_id;sensor_type;location;lat;lon;timestamp;temperature;humidity
10312;DHT22;5201;48.776;9.128;2022-07-29T00:02:02;21.40;99.90
10312;DHT22;5201;48.776;9.128;2022-07-29T00:04:28;21.40;99.90
10312;DHT22;5201;48.776;9.128;2022-07-29T00:06:54;21.30;99.90
10312;DHT22;5201;48.776;9.128;2022-07-29T00:09:19;21.50;99.90
10312;DHT22;5201;48.776;9.128;2022-07-29T00:11:45;21.50;99.90
10312;DHT22;5201;48.776;9.128;2022-07-29T00:14:11;21.50;99.90
10312;DHT22;5201;48.776;9.128;2022-07-29T00:16:36;21.40;99.90
10312;DHT22;5201;48.776;9.128;2022-07-29T00:19:03;21.30;99.90
10312;DHT22;5201;48.776;9.128;2022-07-29T00:21:29;21.30;99.90
10312;DHT22;5201;48.776;9.128;2022-07-29T00:23:54;21.40;99.90
10312;DHT22;5201;48.776;9.128;2022-07-29T00:26:20;21.50;99.90
10312;DHT22;5201;48.776;9.128;2022-07-29T00:28:46;21.40;99.90
10312;DHT22;5201;48.776;9.128;2022-07-29T00:31:12;21.40;99.90
10312;DHT22;5201;48.776;9.128;2022-07-29T00:33:38;21.40;99.90
10312;DHT22;5201;48.776;9.128;2022-07-29T00:36:04;21.40;99.90
10312;DHT22;5201;48.776;9.128;2022-07-29T00:38:29;21.50;99.90
10312;DHT22;5201;48.776;9.128;2022-07-29T00:40:55;21.50;99.90
10312;DHT22;5201;48.776;9.128;2022-07-29T00:43:20;21.40;99.90
10312;DHT22;5201;48.776;9.128;2022-07-29T00:45:46;21.30;99.90
10312;DHT22;5201;48.776;9.128;2022-07-29T00:48:12;21.30;99.90
10312;DHT22;5201;48.776;9.128;2022-07-29T00:50:38;21.20;99.90
10312;DHT22;5201;48.776;9.128;2022-07-29T00:53:06;21.20;99.90
10312;DHT22;5201;48.776;9.128;2022-07-29T00:55:32;21.10;99.90
10312;DHT22;5201;48.776;9.128;2022-07-29T00:57:58;21.20;99.90
10312;DHT22;5201;48.776;9.128;2022-07-29T01:00:25;21.10;99.90
10312;DHT22;5201;48.776;9.128;2022-07-29T01:02:51;21.90;99.90
10312;DHT22;5201;48.776;9.128;2022-07-29T01:05:19;21.20;99.90
10312;DHT22;5201;48.776;9.128;2022-07-29T01:07:46;21.20;99.90
10312;DHT22;5201;48.776;9.128;2022-07-29T01:10:14;21.20;99.90
10312;DHT22;5201;48.776;9.128;2022-07-29T01:12:43;21.30;99.90
10312;DHT22;5201;48.776;9.128;2022-07-29T01:15:10;21.30;99.90
10312;DHT22;5201;48.776;9.128;2022-07-29T01:21:00;21.30;99.90
10312;DHT22;5201;48.776;9.128;2022-07-29T01:26:34;21.20;99.90
10312;DHT22;5201;48.776;9.128;2022-07-29T01:31:43;21.20;99.90
10312;DHT22;5201;48.776;9.128;2022-07-29T01:34:14;21.20;99.90
10312;DHT22;5201;48.776;9.128;2022-07-29T01:36:48;21.00;99.90
10312;DHT22;5201;48.776;9.128;2022-07-29T01:39:36;21.00;99.90
10312;DHT22;5201;48.776;9.128;2022-07-29T01:45:15;21.10;99.90
10312;DHT22;5201;48.776;9.128;2022-07-29T01:47:59;21.10;99.90
10312;DHT22;5201;48.776;9.128;2022-07-29T01:50:44;21.10;99.90
10312;DHT22;5201;48.776;9.128;2022-07-29T01:53:12;21.10;99.90
10312;DHT22;5201;48.776;9.128;2022-07-29T01:55:43;21.10;99.90
10312;DHT22;5201;48.776;9.128;2022-07-29T01:58:11;21.10;99.90
10312;DHT22;5201;48.776;9.128;2022-07-29T02:00:39;21.10;99.90
10312;DHT22;5201;48.776;9.128;2022-07-29T02:03:09;21.20;99.90
10312;DHT22;5201;48.776;9.128;2022-07-29T02:05:38;20.80;99.90
10312;DHT22;5201;48.776;9.128;2022-07-29T02:08:04;20.90;99.90
10312;DHT22;5201;48.776;9.128;2022-07-29T02:10:33;20.90;99.90
10312;DHT22;5201;48.776;9.128;2022-07-29T02:13:01;20.90;99.90
10312;DHT22;5201;48.776;9.128;2022-07-29T02:15:30;20.90;99.90
10312;DHT22;5201;48.776;9.128;2022-07-29T02:18:06;21.00;99.90
10312;DHT22;5201;48.776;9.128;2022-07-29T02:20:33;20.80;99.90
10312;DHT22;5201;48.776;9.128;2022-07-29T02:23:00;20.70;99.90
10312;DHT22;5201;48.776;9.128;2022-07-29T02:25:28;20.80;99.90
10312;DHT22;5201;48.776;9.128;2022-07-29T02:27:55;20.90;99.90
10312;DHT22;5201;48.776;9.128;2022-07-29T02:30:22;20.80;99.90
10312;DHT22;5201;48.776;9.128;2022-07-29T02:32:49;20.90;99.90
10312;DHT22;5201;48.776;9.128;2022-07-29T02:35:16;20.90;99.90
10312;DHT22;5201;48.776;9.128;2022-07-29T02:37:44;20.90;99.90
10312;DHT22;5201;48.776;9.128;2022-07-29T02:40:14;20.90;99.90
10312;DHT22;5201;48.776;9.128;2022-07-29T02:42:42;21.00;99.90
10312;DHT22;5201;48.776;9.128;2022-07-29T02:45:09;20.90;99.90
10312;DHT22;5201;48.776;9.128;2022-07-29T02:47:39;21.10;99.90
10312;DHT22;5201;48.776;9.128;2022-07-29T02:50:11;20.90;99.90
10312;DHT22;5201;48.776;9.128;2022-07-29T02:53:01;20.90;99.90
10312;DHT22;5201;48.776;9.128;2022-07-29T02:55:30;21.00;99.90
10312;DHT22;5201;48.776;9.128;2022-07-29T02:58:01;20.90;99.90
10312;DHT22;5201;48.776;9.128;2022-07-29T03:00:28;20.90;99.90
10312;DHT22;5201;48.776;9.128;2022-07-29T03:02:57;20.90;99.90
10312;DHT22;5201;48.776;9.128;2022-07-29T03:05:24;20.80;99.90
10312;DHT22;5201;48.776;9.128;2022-07-29T03:07:55;20.80;99.90
10312;DHT22;5201;48.776;9.128;2022-07-29T03:10:21;20.80;99.90
10312;DHT22;5201;48.776;9.128;2022-07-29T03:12:48;20.70;99.90
10312;DHT22;5201;48.776;9.128;2022-07-29T03:15:14;20.70;99.90
10312;DHT22;5201;48.776;9.128;2022-07-29T03:17:40;20.60;99.90
10312;DHT22;5201;48.776;9.128;2022-07-29T03:20:07;20.60;99.90
10312;DHT22;5201;48.776;9.128;2022-07-29T03:22:37;20.50;99.90
10312;DHT22;5201;48.776;9.128;2022-07-29T03:25:10;20.50;99.90
10312;DHT22;5201;48.776;9.128;2022-07-29T03:27:36;20.50;99.90
10312;DHT22;5201;48.776;9.128;2022-07-29T03:30:02;20.50;99.90
10312;DHT22;5201;48.776;9.128;2022-07-29T03:32:28;20.50;99.90
10312;DHT22;5201;48.776;9.128;2022-07-29T03:34:54;20.50;99.90
10312;DHT22;5201;48.776;9.128;2022-07-29T03:37:19;20.50;99.90
10312;DHT22;5201;48.776;9.128;2022-07-29T03:39:46;20.50;99.90
10312;DHT22;5201;48.776;9.128;2022-07-29T03:42:14;20.40;99.90
10312;DHT22;5201;48.776;9.128;2022-07-29T03:44:42;20.40;99.90
10312;DHT22;5201;48.776;9.128;2022-07-29T03:47:09;20.40;99.90
10312;DHT22;5201;48.776;9.128;2022-07-29T03:49:36;20.40;99.90
10312;DHT22;5201;48.776;9.128;2022-07-29T03:52:03;20.40;99.90
10312;DHT22;5201;48.776;9.128;2022-07-29T03:54:29;20.40;99.90
10312;DHT22;5201;48.776;9.128;2022-07-29T03:56:56;20.30;99.90
10312;DHT22;5201;48.776;9.128;2022-07-29T03:59:25;20.30;99.90
10312;DHT22;5201;48.776;9.128;2022-07-29T04:01:51;20.30;99.90
10312;DHT22;5201;48.776;9.128;2022-07-29T04:04:17;20.30;99.90
10312;DHT22;5201;48.776;9.128;2022-07-29T04:06:45;20.40;99.90
10312;DHT22;5201;48.776;9.128;2022-07-29T04:09:11;20.30;99.90
10312;DHT22;5201;48.776;9.128;2022-07-29T04:11:41;20.40;99.90
10312;DHT22;5201;48.776;9.128;2022-07-29T04:14:07;20.40;99.90
10312;DHT22;5201;48.776;9.128;2022-07-29T04:16:33;20.50;99.90
10312;DHT22;5201;48.776;9.128;2022-07-29T04:18:58;20.40;99.90
10312;DHT22;5201;48.776;9.128;2022-07-29T04:21:24;20.50;99.90
10312;DHT22;5201;48.776;9.128;2022-07-29T04:23:50;20.50;99.90
10312;DHT22;5201;48.776;9.128;2022-07-29T04:26:17;20.60;99.90
10312;DHT22;5201;48.776;9.128;2022-07-29T04:28:43;20.60;99.90
10312;DHT22;5201;48.776;9.128;2022-07-29T04:31:09;20.60;99.90
10312;DHT22;5201;48.776;9.128;2022-07-29T04:33:35;20.70;99.90
10312;DHT22;5201;48.776;9.128;2022-07-29T04:36:01;20.70;99.90
10312;DHT22;5201;48.776;9.128;2022-07-29T04:38:26;20.80;99.90
10312;DHT22;5201;48.776;9.128;2022-07-29T04:40:52;20.70;99.90
10312;DHT22;5201;48.776;9.128;2022-07-29T04:43:18;20.70;99.90
10312;DHT22;5201;48.776;9.128;2022-07-29T04:48:11;20.60;99.90
10312;DHT22;5201;48.776;9.128;2022-07-29T04:50:40;20.60;99.90
10312;DHT22;5201;48.776;9.128;2022-07-29T04:53:06;20.60;99.90
10312;DHT22;5201;48.776;9.128;2022-07-29T04:55:33;20.60;99.90
10312;DHT22;5201;48.776;9.128;2022-07-29T04:57:59;20.60;99.90
10312;DHT22;5201;48.776;9.128;2022-07-29T05:00:24;20.50;99.90
10312;DHT22;5201;48.776;9.128;2022-07-29T05:02:50;20.50;99.90
10312;DHT22;5201;48.776;9.128;2022-07-29T05:05:16;20.40;99.90
10312;DHT22;5201;48.776;9.128;2022-07-29T05:07:41;20.30;99.90
10312;DHT22;5201;48.776;9.128;2022-07-29T05:10:08;20.30;99.90
10312;DHT22;5201;48.776;9.128;2022-07-29T05:12:34;20.40;99.90
10312;DHT22;5201;48.776;9.128;2022-07-29T05:14:59;20.60;99.90
10312;DHT22;5201;48.776;9.128;2022-07-29T05:17:25;21.20;99.90
10312;DHT22;5201;48.776;9.128;2022-07-29T05:19:50;21.00;99.90
10312;DHT22;5201;48.776;9.128;2022-07-29T05:22:20;21.00;99.90
10312;DHT22;5201;48.776;9.128;2022-07-29T05:24:46;21.00;99.90
10312;DHT22;5201;48.776;9.128;2022-07-29T05:27:12;21.40;99.90
10312;DHT22;5201;48.776;9.128;2022-07-29T05:29:38;20.80;99.90
10312;DHT22;5201;48.776;9.128;2022-07-29T05:32:04;21.00;99.90
10312;DHT22;5201;48.776;9.128;2022-07-29T05:34:30;21.10;99.90
10312;DHT22;5201;48.776;9.128;2022-07-29T05:36:56;21.10;99.90
10312;DHT22;5201;48.776;9.128;2022-07-29T05:39:21;21.30;99.90
10312;DHT22;5201;48.776;9.128;2022-07-29T05:41:47;21.40;99.90
10312;DHT22;5201;48.776;9.128;2022-07-29T05:44:13;21.40;99.90
10312;DHT22;5201;48.776;9.128;2022-07-29T05:46:39;21.60;99.90
10312;DHT22;5201;48.776;9.128;2022-07-29T05:49:04;21.70;99.90
10312;DHT22;5201;48.776;9.128;2022-07-29T05:51:32;21.90;99.90
10312;DHT22;5201;48.776;9.128;2022-07-29T05:53:58;21.80;99.90
10312;DHT22;5201;48.776;9.128;2022-07-29T05:56:24;21.80;99.90
10312;DHT22;5201;48.776;9.128;2022-07-29T05:58:50;21.90;99.90
10312;DHT22;5201;48.776;9.128;2022-07-29T06:01:15;21.90;99.90
10312;DHT22;5201;48.776;9.128;2022-07-29T06:03:41;22.10;99.90
10312;DHT22;5201;48.776;9.128;2022-07-29T06:06:07;22.20;99.90
10312;DHT22;5201;48.776;9.128;2022-07-29T06:08:33;22.30;99.90
10312;DHT22;5201;48.776;9.128;2022-07-29T06:11:02;22.50;99.90
10312;DHT22;5201;48.776;9.128;2022-07-29T06:13:28;22.70;99.90
10312;DHT22;5201;48.776;9.128;2022-07-29T06:15:54;22.90;99.90
10312;DHT22;5201;48.776;9.128;2022-07-29T06:18:20;23.00;99.90
10312;DHT22;5201;48.776;9.128;2022-07-29T06:20:49;23.30;99.90
10312;DHT22;5201;48.776;9.128;2022-07-29T06:23:15;23.50;99.90
10312;DHT22;5201;48.776;9.128;2022-07-29T06:25:41;24.00;99.90
10312;DHT22;5201;48.776;9.128;2022-07-29T06:28:06;24.60;99.90
10312;DHT22;5201;48.776;9.128;2022-07-29T06:30:32;25.10;99.90
10312;DHT22;5201;48.776;9.128;2022-07-29T06:32:58;25.60;99.10
10312;DHT22;5201;48.776;9.128;2022-07-29T06:35:23;26.00;98.00
10312;DHT22;5201;48.776;9.128;2022-07-29T06:37:49;26.30;98.00
10312;DHT22;5201;48.776;9.128;2022-07-29T06:40:15;26.30;97.00
10312;DHT22;5201;48.776;9.128;2022-07-29T06:42:59;26.30;96.50
10312;DHT22;5201;48.776;9.128;2022-07-29T06:45:24;26.40;97.50
10312;DHT22;5201;48.776;9.128;2022-07-29T06:47:50;26.80;96.00
10312;DHT22;5201;48.776;9.128;2022-07-29T06:50:16;26.90;95.30
10312;DHT22;5201;48.776;9.128;2022-07-29T06:52:41;26.90;96.00
10312;DHT22;5201;48.776;9.128;2022-07-29T06:55:08;27.00;95.60
10312;DHT22;5201;48.776;9.128;2022-07-29T06:57:33;27.10;95.40
10312;DHT22;5201;48.776;9.128;2022-07-29T06:59:59;25.90;94.40
10312;DHT22;5201;48.776;9.128;2022-07-29T07:02:25;27.00;95.20
10312;DHT22;5201;48.776;9.128;2022-07-29T07:04:51;27.20;95.30
10312;DHT22;5201;48.776;9.128;2022-07-29T07:07:17;27.60;94.20
10312;DHT22;5201;48.776;9.128;2022-07-29T07:09:43;27.70;94.30
10312;DHT22;5201;48.776;9.128;2022-07-29T07:12:08;27.80;94.60
10312;DHT22;5201;48.776;9.128;2022-07-29T07:14:34;28.20;93.40
10312;DHT22;5201;48.776;9.128;2022-07-29T07:17:00;28.20;93.70
10312;DHT22;5201;48.776;9.128;2022-07-29T07:19:26;28.20;93.30
10312;DHT22;5201;48.776;9.128;2022-07-29T07:21:52;28.20;93.50
10312;DHT22;5201;48.776;9.128;2022-07-29T07:24:18;28.30;93.30
10312;DHT22;5201;48.776;9.128;2022-07-29T07:26:44;28.40;93.00
10312;DHT22;5201;48.776;9.128;2022-07-29T07:29:10;28.60;93.00
10312;DHT22;5201;48.776;9.128;2022-07-29T07:31:37;28.70;92.80
10312;DHT22;5201;48.776;9.128;2022-07-29T07:34:03;28.40;92.10
10312;DHT22;5201;48.776;9.128;2022-07-29T07:36:29;28.30;92.20
10312;DHT22;5201;48.776;9.128;2022-07-29T07:38:54;28.50;92.10
10312;DHT22;5201;48.776;9.128;2022-07-29T07:41:20;28.60;92.30
10312;DHT22;5201;48.776;9.128;2022-07-29T07:43:46;28.90;91.60
10312;DHT22;5201;48.776;9.128;2022-07-29T07:46:12;29.20;91.40
10312;DHT22;5201;48.776;9.128;2022-07-29T07:48:37;29.60;90.90
10312;DHT22;5201;48.776;9.128;2022-07-29T07:51:03;30.00;90.60
10312;DHT22;5201;48.776;9.128;2022-07-29T07:53:29;30.50;90.10
10312;DHT22;5201;48.776;9.128;2022-07-29T07:55:55;30.60;89.50
10312;DHT22;5201;48.776;9.128;2022-07-29T07:58:20;30.70;88.90
10312;DHT22;5201;48.776;9.128;2022-07-29T08:00:46;30.70;88.60
10312;DHT22;5201;48.776;9.128;2022-07-29T08:03:12;30.50;87.20
10312;DHT22;5201;48.776;9.128;2022-07-29T08:05:39;30.30;88.60
10312;DHT22;5201;48.776;9.128;2022-07-29T08:08:05;29.90;87.30
10312;DHT22;5201;48.776;9.128;2022-07-29T08:10:31;30.20;89.30
10312;DHT22;5201;48.776;9.128;2022-07-29T08:13:15;29.90;87.00
10312;DHT22;5201;48.776;9.128;2022-07-29T08:15:41;30.20;88.00
10312;DHT22;5201;48.776;9.128;2022-07-29T08:18:08;30.60;85.80
10312;DHT22;5201;48.776;9.128;2022-07-29T08:20:34;30.70;86.20
10312;DHT22;5201;48.776;9.128;2022-07-29T08:23:01;30.40;84.70
10312;DHT22;5201;48.776;9.128;2022-07-29T08:25:28;30.50;83.70
10312;DHT22;5201;48.776;9.128;2022-07-29T08:27:53;30.70;83.50
10312;DHT22;5201;48.776;9.128;2022-07-29T08:30:19;30.60;82.40
10312;DHT22;5201;48.776;9.128;2022-07-29T08:32:45;30.50;83.00
10312;DHT22;5201;48.776;9.128;2022-07-29T08:35:12;30.50;84.20
10312;DHT22;5201;48.776;9.128;2022-07-29T08:37:38;30.00;83.40
10312;DHT22;5201;48.776;9.128;2022-07-29T08:40:04;29.70;84.30
10312;DHT22;5201;48.776;9.128;2022-07-29T08:42:31;29.20;85.00
10312;DHT22;5201;48.776;9.128;2022-07-29T08:44:57;29.60;85.20
10312;DHT22;5201;48.776;9.128;2022-07-29T08:47:23;29.90;83.30
10312;DHT22;5201;48.776;9.128;2022-07-29T08:49:51;29.70;85.10
10312;DHT22;5201;48.776;9.128;2022-07-29T08:52:18;29.70;84.30
10312;DHT22;5201;48.776;9.128;2022-07-29T08:54:44;30.20;84.30
10312;DHT22;5201;48.776;9.128;2022-07-29T08:57:13;30.60;83.70
10312;DHT22;5201;48.776;9.128;2022-07-29T08:59:40;31.10;82.20
10312;DHT22;5201;48.776;9.128;2022-07-29T09:02:15;31.80;82.00
10312;DHT22;5201;48.776;9.128;2022-07-29T09:04:44;32.10;80.20
10312;DHT22;5201;48.776;9.128;2022-07-29T09:07:17;32.50;79.80
10312;DHT22;5201;48.776;9.128;2022-07-29T09:09:43;32.50;78.90
10312;DHT22;5201;48.776;9.128;2022-07-29T09:12:10;32.30;78.00
10312;DHT22;5201;48.776;9.128;2022-07-29T09:14:38;32.20;79.40
10312;DHT22;5201;48.776;9.128;2022-07-29T09:17:07;32.70;79.70
10312;DHT22;5201;48.776;9.128;2022-07-29T09:19:34;33.10;77.20
10312;DHT22;5201;48.776;9.128;2022-07-29T09:22:05;32.70;76.20
10312;DHT22;5201;48.776;9.128;2022-07-29T09:27:08;31.30;77.80
10312;DHT22;5201;48.776;9.128;2022-07-29T09:29:36;31.20;80.40
10312;DHT22;5201;48.776;9.128;2022-07-29T09:32:07;31.50;80.80
10312;DHT22;5201;48.776;9.128;2022-07-29T09:34:33;31.80;79.90
10312;DHT22;5201;48.776;9.128;2022-07-29T09:36:59;32.20;78.30
10312;DHT22;5201;48.776;9.128;2022-07-29T09:39:30;32.20;77.40
10312;DHT22;5201;48.776;9.128;2022-07-29T09:41:59;32.10;77.80
10312;DHT22;5201;48.776;9.128;2022-07-29T09:44:25;32.30;78.30
10312;DHT22;5201;48.776;9.128;2022-07-29T09:49:19;32.50;77.40
10312;DHT22;5201;48.776;9.128;2022-07-29T09:51:46;32.10;77.30
10312;DHT22;5201;48.776;9.128;2022-07-29T09:54:25;31.90;77.90
10312;DHT22;5201;48.776;9.128;2022-07-29T09:56:52;31.80;77.40
10312;DHT22;5201;48.776;9.128;2022-07-29T09:59:19;31.60;79.20
10312;DHT22;5201;48.776;9.128;2022-07-29T10:01:52;31.30;77.50
10312;DHT22;5201;48.776;9.128;2022-07-29T10:04:18;30.30;79.20
10312;DHT22;5201;48.776;9.128;2022-07-29T10:07:01;30.20;81.30
10312;DHT22;5201;48.776;9.128;2022-07-29T10:09:27;30.00;81.70
10312;DHT22;5201;48.776;9.128;2022-07-29T10:12:03;29.90;81.60
10312;DHT22;5201;48.776;9.128;2022-07-29T10:14:31;29.80;81.30
10312;DHT22;5201;48.776;9.128;2022-07-29T10:16:59;29.50;81.80
10312;DHT22;5201;48.776;9.128;2022-07-29T10:19:26;29.30;82.20
10312;DHT22;5201;48.776;9.128;2022-07-29T10:21:53;29.00;83.80
10312;DHT22;5201;48.776;9.128;2022-07-29T10:24:19;28.90;84.10
10312;DHT22;5201;48.776;9.128;2022-07-29T10:26:45;28.80;85.60
10312;DHT22;5201;48.776;9.128;2022-07-29T10:29:12;28.50;86.30
10312;DHT22;5201;48.776;9.128;2022-07-29T10:35:01;28.10;88.70
10312;DHT22;5201;48.776;9.128;2022-07-29T10:43:26;27.50;90.30
10312;DHT22;5201;48.776;9.128;2022-07-29T10:45:56;27.40;91.10
10312;DHT22;5201;48.776;9.128;2022-07-29T10:48:23;27.10;90.90
10312;DHT22;5201;48.776;9.128;2022-07-29T10:51:03;27.00;91.30
10312;DHT22;5201;48.776;9.128;2022-07-29T10:53:51;26.90;91.40
10312;DHT22;5201;48.776;9.128;2022-07-29T10:56:30;26.80;92.60
10312;DHT22;5201;48.776;9.128;2022-07-29T11:01:50;26.50;93.50
10312;DHT22;5201;48.776;9.128;2022-07-29T11:04:16;26.50;94.40
10312;DHT22;5201;48.776;9.128;2022-07-29T11:09:30;26.30;95.50
10312;DHT22;5201;48.776;9.128;2022-07-29T11:11:57;25.70;97.50
10312;DHT22;5201;48.776;9.128;2022-07-29T11:17:17;24.70;99.90
10312;DHT22;5201;48.776;9.128;2022-07-29T11:19:43;24.20;99.90
10312;DHT22;5201;48.776;9.128;2022-07-29T11:22:10;23.90;99.90
10312;DHT22;5201;48.776;9.128;2022-07-29T11:24:36;23.80;99.90
10312;DHT22;5201;48.776;9.128;2022-07-29T11:27:10;23.70;99.90
10312;DHT22;5201;48.776;9.128;2022-07-29T11:32:17;23.40;99.90
10312;DHT22;5201;48.776;9.128;2022-07-29T11:34:46;23.30;99.90
10312;DHT22;5201;48.776;9.128;2022-07-29T11:39:44;22.90;99.90
10312;DHT22;5201;48.776;9.128;2022-07-29T11:47:58;23.70;99.90
10312;DHT22;5201;48.776;9.128;2022-07-29T11:50:33;23.80;99.90
10312;DHT22;5201;48.776;9.128;2022-07-29T11:53:00;23.80;99.90
10312;DHT22;5201;48.776;9.128;2022-07-29T11:55:26;23.70;99.90
10312;DHT22;5201;48.776;9.128;2022-07-29T11:57:57;23.30;99.90
10312;DHT22;5201;48.776;9.128;2022-07-29T12:00:28;22.90;99.90
10312;DHT22;5201;48.776;9.128;2022-07-29T12:02:54;22.70;99.90
10312;DHT22;5201;48.776;9.128;2022-07-29T12:05:21;22.50;99.90
10312;DHT22;5201;48.776;9.128;2022-07-29T12:07:47;22.40;99.90
10312;DHT22;5201;48.776;9.128;2022-07-29T12:10:14;22.50;99.90
10312;DHT22;5201;48.776;9.128;2022-07-29T12:12:40;22.60;99.90
10312;DHT22;5201;48.776;9.128;2022-07-29T12:15:16;22.80;99.90
10312;DHT22;5201;48.776;9.128;2022-07-29T12:17:45;22.90;99.90
10312;DHT22;5201;48.776;9.128;2022-07-29T12:20:11;22.80;99.90
10312;DHT22;5201;48.776;9.128;2022-07-29T12:22:39;22.80;99.90
10312;DHT22;5201;48.776;9.128;2022-07-29T12:25:11;22.90;99.90
10312;DHT22;5201;48.776;9.128;2022-07-29T12:27:38;22.90;99.90
10312;DHT22;5201;48.776;9.128;2022-07-29T12:30:09;22.80;99.90
10312;DHT22;5201;48.776;9.128;2022-07-29T12:32:37;22.70;99.90
10312;DHT22;5201;48.776;9.128;2022-07-29T12:35:11;22.60;99.90
10312;DHT22;5201;48.776;9.128;2022-07-29T12:37:40;22.50;99.90
10312;DHT22;5201;48.776;9.128;2022-07-29T12:40:07;22.70;99.90
10312;DHT22;5201;48.776;9.128;2022-07-29T12:42:34;22.90;99.90
10312;DHT22;5201;48.776;9.128;2022-07-29T12:45:00;22.90;99.90
10312;DHT22;5201;48.776;9.128;2022-07-29T12:47:27;23.10;99.90
10312;DHT22;5201;48.776;9.128;2022-07-29T12:50:13;23.30;99.90
10312;DHT22;5201;48.776;9.128;2022-07-29T12:52:44;23.30;99.90
10312;DHT22;5201;48.776;9.128;2022-07-29T12:55:10;23.40;99.90
10312;DHT22;5201;48.776;9.128;2022-07-29T12:57:49;23.50;99.90
10312;DHT22;5201;48.776;9.128;2022-07-29T13:00:23;23.50;99.90
10312;DHT22;5201;48.776;9.128;2022-07-29T13:02:58;23.60;99.90
10312;DHT22;5201;48.776;9.128;2022-07-29T13:05:42;23.70;99.90
10312;DHT22;5201;48.776;9.128;2022-07-29T13:08:15;23.40;99.90
10312;DHT22;5201;48.776;9.128;2022-07-29T13:10:41;23.10;99.90
10312;DHT22;5201;48.776;9.128;2022-07-29T13:13:09;23.00;99.90
10312;DHT22;5201;48.776;9.128;2022-07-29T13:15:37;22.90;99.90
10312;DHT22;5201;48.776;9.128;2022-07-29T13:18:04;22.60;99.90
10312;DHT22;5201;48.776;9.128;2022-07-29T13:20:30;22.40;99.90
10312;DHT22;5201;48.776;9.128;2022-07-29T13:22:58;22.30;99.90
10312;DHT22;5201;48.776;9.128;2022-07-29T13:25:29;22.10;99.90
10312;DHT22;5201;48.776;9.128;2022-07-29T13:27:56;21.80;99.90
10312;DHT22;5201;48.776;9.128;2022-07-29T13:30:22;21.70;99.90
10312;DHT22;5201;48.776;9.128;2022-07-29T13:32:48;21.40;99.90
10312;DHT22;5201;48.776;9.128;2022-07-29T13:35:14;21.30;99.90
10312;DHT22;5201;48.776;9.128;2022-07-29T13:37:40;21.20;99.90
10312;DHT22;5201;48.776;9.128;2022-07-29T13:40:07;21.20;99.90
10312;DHT22;5201;48.776;9.128;2022-07-29T13:42:33;21.20;99.90
10312;DHT22;5201;48.776;9.128;2022-07-29T13:45:00;21.40;99.90
10312;DHT22;5201;48.776;9.128;2022-07-29T13:47:26;21.60;99.90
10312;DHT22;5201;48.776;9.128;2022-07-29T13:49:51;21.70;99.90
10312;DHT22;5201;48.776;9.128;2022-07-29T13:52:19;21.70;99.90
10312;DHT22;5201;48.776;9.128;2022-07-29T13:54:45;21.70;99.90
10312;DHT22;5201;48.776;9.128;2022-07-29T13:57:11;21.90;99.90
10312;DHT22;5201;48.776;9.128;2022-07-29T13:59:37;22.20;99.90
10312;DHT22;5201;48.776;9.128;2022-07-29T14:02:03;22.60;99.90
10312;DHT22;5201;48.776;9.128;2022-07-29T14:04:28;23.00;99.90
10312;DHT22;5201;48.776;9.128;2022-07-29T14:06:54;23.20;99.90
10312;DHT22;5201;48.776;9.128;2022-07-29T14:09:20;23.40;99.90
10312;DHT22;5201;48.776;9.128;2022-07-29T14:11:45;23.50;99.90
10312;DHT22;5201;48.776;9.128;2022-07-29T14:14:13;23.70;99.90
10312;DHT22;5201;48.776;9.128;2022-07-29T14:16:38;23.90;99.90
10312;DHT22;5201;48.776;9.128;2022-07-29T14:19:04;24.00;99.90
10312;DHT22;5201;48.776;9.128;2022-07-29T14:21:29;23.80;99.90
10312;DHT22;5201;48.776;9.128;2022-07-29T14:23:56;23.50;99.90
10312;DHT22;5201;48.776;9.128;2022-07-29T14:26:21;23.30;99.90
10312;DHT22;5201;48.776;9.128;2022-07-29T14:28:48;23.10;99.90
10312;DHT22;5201;48.776;9.128;2022-07-29T14:31:14;23.00;99.90
10312;DHT22;5201;48.776;9.128;2022-07-29T14:33:40;23.10;99.90
10312;DHT22;5201;48.776;9.128;2022-07-29T14:36:05;23.10;99.90
10312;DHT22;5201;48.776;9.128;2022-07-29T14:38:31;23.10;99.90
10312;DHT22;5201;48.776;9.128;2022-07-29T14:40:57;23.20;99.90
10312;DHT22;5201;48.776;9.128;2022-07-29T14:43:22;23.20;99.90
10312;DHT22;5201;48.776;9.128;2022-07-29T14:45:48;23.30;99.90
10312;DHT22;5201;48.776;9.128;2022-07-29T14:48:14;23.40;99.90
10312;DHT22;5201;48.776;9.128;2022-07-29T14:50:40;23.40;99.90
10312;DHT22;5201;48.776;9.128;2022-07-29T14:53:05;23.40;99.90
10312;DHT22;5201;48.776;9.128;2022-07-29T14:55:31;23.40;99.90
10312;DHT22;5201;48.776;9.128;2022-07-29T14:57:57;23.50;99.90
10312;DHT22;5201;48.776;9.128;2022-07-29T15:00:24;23.60;99.90
10312;DHT22;5201;48.776;9.128;2022-07-29T15:02:50;23.70;99.90
10312;DHT22;5201;48.776;9.128;2022-07-29T15:05:16;23.70;99.90
10312;DHT22;5201;48.776;9.128;2022-07-29T15:07:41;23.70;99.90
10312;DHT22;5201;48.776;9.128;2022-07-29T15:10:07;23.70;99.90
10312;DHT22;5201;48.776;9.128;2022-07-29T15:12:33;23.70;99.90
10312;DHT22;5201;48.776;9.128;2022-07-29T15:14:58;23.80;99.90
10312;DHT22;5201;48.776;9.128;2022-07-29T15:17:24;23.90;99.90
10312;DHT22;5201;48.776;9.128;2022-07-29T15:19:50;23.90;99.90
10312;DHT22;5201;48.776;9.128;2022-07-29T15:22:15;23.90;99.90
10312;DHT22;5201;48.776;9.128;2022-07-29T15:24:41;23.90;99.90
10312;DHT22;5201;48.776;9.128;2022-07-29T15:27:07;23.90;99.90
10312;DHT22;5201;48.776;9.128;2022-07-29T15:29:42;24.00;99.90
10312;DHT22;5201;48.776;9.128;2022-07-29T15:32:08;24.00;99.90
10312;DHT22;5201;48.776;9.128;2022-07-29T15:34:35;23.50;99.90
10312;DHT22;5201;48.776;9.128;2022-07-29T15:37:00;24.10;99.90
10312;DHT22;5201;48.776;9.128;2022-07-29T15:39:26;24.20;99.90
10312;DHT22;5201;48.776;9.128;2022-07-29T15:41:52;24.20;99.90
10312;DHT22;5201;48.776;9.128;2022-07-29T15:44:18;24.20;99.90
10312;DHT22;5201;48.776;9.128;2022-07-29T15:46:44;24.20;99.90
10312;DHT22;5201;48.776;9.128;2022-07-29T15:49:32;24.20;99.90
10312;DHT22;5201;48.776;9.128;2022-07-29T15:52:03;24.40;99.90
10312;DHT22;5201;48.776;9.128;2022-07-29T15:54:32;24.40;99.90
10312;DHT22;5201;48.776;9.128;2022-07-29T15:56:57;24.40;99.90
10312;DHT22;5201;48.776;9.128;2022-07-29T15:59:24;24.40;99.90
10312;DHT22;5201;48.776;9.128;2022-07-29T16:01:50;24.40;99.90
10312;DHT22;5201;48.776;9.128;2022-07-29T16:04:16;24.40;99.90
10312;DHT22;5201;48.776;9.128;2022-07-29T16:06:43;24.60;99.90
10312;DHT22;5201;48.776;9.128;2022-07-29T16:09:09;24.50;99.90
10312;DHT22;5201;48.776;9.128;2022-07-29T16:11:35;24.30;99.90
10312;DHT22;5201;48.776;9.128;2022-07-29T16:14:01;24.30;99.90
10312;DHT22;5201;48.776;9.128;2022-07-29T16:16:26;24.30;99.90
10312;DHT22;5201;48.776;9.128;2022-07-29T16:18:52;24.30;99.90
10312;DHT22;5201;48.776;9.128;2022-07-29T16:21:18;24.40;99.90
10312;DHT22;5201;48.776;9.128;2022-07-29T16:23:43;24.30;99.90
10312;DHT22;5201;48.776;9.128;2022-07-29T16:26:09;24.30;99.90
10312;DHT22;5201;48.776;9.128;2022-07-29T16:28:35;24.40;99.90
10312;DHT22;5201;48.776;9.128;2022-07-29T16:31:01;24.40;99.90
10312;DHT22;5201;48.776;9.128;2022-07-29T16:33:26;24.20;99.90
10312;DHT22;5201;48.776;9.128;2022-07-29T16:35:52;24.20;99.90